sensor_id;sensor_type;location;lat;lon;timestamp;temperature;humidity
26821;DHT22;37186;51.394;5.454;2022-07-29T00:01:38;21.60;58.10
26821;DHT22;37186;51.394;5.454;2022-07-29T00:04:38;21.60;58.10
26821;DHT22;37186;51.394;5.454;2022-07-29T00:07:39;21.60;58.20
26821;DHT22;37186;51.394;5.454;2022-07-29T00:10:41;21.60;58.20
26821;DHT22;37186;51.394;5.454;2022-07-29T00:13:42;21.60;58.20
26821;DHT22;37186;51.394;5.454;2022-07-29T00:16:42;21.50;58.10
26821;DHT22;37186;51.394;5.454;2022-07-29T00:19:43;21.60;58.20
26821;DHT22;37186;51.394;5.454;2022-07-29T00:22:43;21.50;58.00
26821;DHT22;37186;51.394;5.454;2022-07-29T00:25:44;21.50;58.20
26821;DHT22;37186;51.394;5.454;2022-07-29T00:28:44;21.50;58.20
26821;DHT22;37186;51.394;5.454;2022-07-29T00:31:45;21.50;58.20
26821;DHT22;37186;51.394;5.454;2022-07-29T00:34:46;21.40;58.20
26821;DHT22;37186;51.394;5.454;2022-07-29T00:38:04;21.50;58.40
26821;DHT22;37186;51.394;5.454;2022-07-29T00:41:05;21.40;58.60
26821;DHT22;37186;51.394;5.454;2022-07-29T00:44:05;21.40;58.60
26821;DHT22;37186;51.394;5.454;2022-07-29T00:47:07;21.40;58.70
26821;DHT22;37186;51.394;5.454;2022-07-29T00:50:09;21.40;58.90
26821;DHT22;37186;51.394;5.454;2022-07-29T00:53:12;21.30;59.00
26821;DHT22;37186;51.394;5.454;2022-07-29T00:56:12;21.30;59.10
26821;DHT22;37186;51.394;5.454;2022-07-29T00:59:13;21.30;59.50
26821;DHT22;37186;51.394;5.454;2022-07-29T01:02:13;21.30;59.70
26821;DHT22;37186;51.394;5.454;2022-07-29T01:05:19;21.30;59.30
26821;DHT22;37186;51.394;5.454;2022-07-29T01:08:20;21.30;59.50
26821;DHT22;37186;51.394;5.454;2022-07-29T01:11:21;21.20;59.50
26821;DHT22;37186;51.394;5.454;2022-07-29T01:14:21;21.10;59.80
26821;DHT22;37186;51.394;5.454;2022-07-29T01:17:44;21.10;60.50
26821;DHT22;37186;51.394;5.454;2022-07-29T01:20:56;21.10;60.40
26821;DHT22;37186;51.394;5.454;2022-07-29T01:30:44;20.90;60.90
26821;DHT22;37186;51.394;5.454;2022-07-29T01:33:53;20.90;60.60
26821;DHT22;37186;51.394;5.454;2022-07-29T01:37:13;20.80;61.00
26821;DHT22;37186;51.394;5.454;2022-07-29T01:40:40;20.70;60.80
26821;DHT22;37186;51.394;5.454;2022-07-29T01:43:58;20.70;60.50
26821;DHT22;37186;51.394;5.454;2022-07-29T01:47:05;20.60;60.80
26821;DHT22;37186;51.394;5.454;2022-07-29T01:50:11;20.60;61.60
26821;DHT22;37186;51.394;5.454;2022-07-29T01:53:16;20.50;61.00
26821;DHT22;37186;51.394;5.454;2022-07-29T01:56:19;20.50;61.20
26821;DHT22;37186;51.394;5.454;2022-07-29T01:59:21;20.50;61.20
26821;DHT22;37186;51.394;5.454;2022-07-29T02:02:22;20.40;61.10
26821;DHT22;37186;51.394;5.454;2022-07-29T02:05:23;20.40;61.50
26821;DHT22;37186;51.394;5.454;2022-07-29T02:08:26;20.40;61.60
26821;DHT22;37186;51.394;5.454;2022-07-29T02:11:27;20.40;61.70
26821;DHT22;37186;51.394;5.454;2022-07-29T02:14:31;20.40;61.70
26821;DHT22;37186;51.394;5.454;2022-07-29T02:17:45;20.30;61.50
26821;DHT22;37186;51.394;5.454;2022-07-29T02:20:49;20.30;61.50
26821;DHT22;37186;51.394;5.454;2022-07-29T02:23:52;20.30;61.40
26821;DHT22;37186;51.394;5.454;2022-07-29T02:26:55;20.30;61.80
26821;DHT22;37186;51.394;5.454;2022-07-29T02:29:58;20.30;61.60
26821;DHT22;37186;51.394;5.454;2022-07-29T02:33:01;20.20;61.70
26821;DHT22;37186;51.394;5.454;2022-07-29T02:36:02;20.20;61.60
26821;DHT22;37186;51.394;5.454;2022-07-29T02:39:03;20.20;61.90
26821;DHT22;37186;51.394;5.454;2022-07-29T02:42:07;20.20;61.80
26821;DHT22;37186;51.394;5.454;2022-07-29T02:45:10;20.20;61.90
26821;DHT22;37186;51.394;5.454;2022-07-29T02:48:15;20.20;61.90
26821;DHT22;37186;51.394;5.454;2022-07-29T02:51:21;20.10;62.20
26821;DHT22;37186;51.394;5.454;2022-07-29T02:54:44;20.10;62.00
26821;DHT22;37186;51.394;5.454;2022-07-29T03:01:04;20.10;62.00
26821;DHT22;37186;51.394;5.454;2022-07-29T03:04:09;20.10;62.30
26821;DHT22;37186;51.394;5.454;2022-07-29T03:07:14;20.10;62.10
26821;DHT22;37186;51.394;5.454;2022-07-29T03:10:16;20.10;62.30
26821;DHT22;37186;51.394;5.454;2022-07-29T03:13:17;20.10;62.20
26821;DHT22;37186;51.394;5.454;2022-07-29T03:16:19;20.00;62.00
26821;DHT22;37186;51.394;5.454;2022-07-29T03:19:20;20.00;62.40
26821;DHT22;37186;51.394;5.454;2022-07-29T03:22:21;20.00;62.30
26821;DHT22;37186;51.394;5.454;2022-07-29T03:25:21;20.00;62.00
26821;DHT22;37186;51.394;5.454;2022-07-29T03:28:22;20.00;63.40
26821;DHT22;37186;51.394;5.454;2022-07-29T03:31:23;20.00;64.00
26821;DHT22;37186;51.394;5.454;2022-07-29T03:34:23;20.00;63.00
26821;DHT22;37186;51.394;5.454;2022-07-29T03:37:24;19.90;63.30
26821;DHT22;37186;51.394;5.454;2022-07-29T03:40:35;19.90;63.10
26821;DHT22;37186;51.394;5.454;2022-07-29T03:43:39;19.90;63.50
26821;DHT22;37186;51.394;5.454;2022-07-29T03:46:42;19.80;63.00
26821;DHT22;37186;51.394;5.454;2022-07-29T03:49:46;19.90;62.80
26821;DHT22;37186;51.394;5.454;2022-07-29T03:52:49;19.80;62.90
26821;DHT22;37186;51.394;5.454;2022-07-29T03:55:53;19.80;62.80
26821;DHT22;37186;51.394;5.454;2022-07-29T03:58:55;19.80;62.90
26821;DHT22;37186;51.394;5.454;2022-07-29T04:01:56;19.80;63.00
26821;DHT22;37186;51.394;5.454;2022-07-29T04:04:57;19.80;63.10
26821;DHT22;37186;51.394;5.454;2022-07-29T04:07:58;19.70;63.50
26821;DHT22;37186;51.394;5.454;2022-07-29T04:10:59;19.80;64.30
26821;DHT22;37186;51.394;5.454;2022-07-29T04:14:00;19.70;63.30
26821;DHT22;37186;51.394;5.454;2022-07-29T04:17:01;19.70;64.00
26821;DHT22;37186;51.394;5.454;2022-07-29T04:20:03;19.70;63.80
26821;DHT22;37186;51.394;5.454;2022-07-29T04:23:03;19.60;63.30
26821;DHT22;37186;51.394;5.454;2022-07-29T04:26:04;19.60;63.30
26821;DHT22;37186;51.394;5.454;2022-07-29T04:29:05;19.60;63.50
26821;DHT22;37186;51.394;5.454;2022-07-29T04:32:06;19.60;63.50
26821;DHT22;37186;51.394;5.454;2022-07-29T04:35:06;19.60;63.60
26821;DHT22;37186;51.394;5.454;2022-07-29T04:38:07;19.60;63.70
26821;DHT22;37186;51.394;5.454;2022-07-29T04:41:08;19.50;63.80
26821;DHT22;37186;51.394;5.454;2022-07-29T04:44:08;19.50;63.50
26821;DHT22;37186;51.394;5.454;2022-07-29T04:47:09;19.50;63.70
26821;DHT22;37186;51.394;5.454;2022-07-29T04:50:10;19.50;63.30
26821;DHT22;37186;51.394;5.454;2022-07-29T04:53:10;19.50;63.50
26821;DHT22;37186;51.394;5.454;2022-07-29T04:56:11;19.40;63.80
26821;DHT22;37186;51.394;5.454;2022-07-29T04:59:11;19.50;63.70
26821;DHT22;37186;51.394;5.454;2022-07-29T05:02:12;19.40;63.60
26821;DHT22;37186;51.394;5.454;2022-07-29T05:05:12;19.40;63.50
26821;DHT22;37186;51.394;5.454;2022-07-29T05:08:13;19.40;63.60
26821;DHT22;37186;51.394;5.454;2022-07-29T05:11:14;19.40;63.50
26821;DHT22;37186;51.394;5.454;2022-07-29T05:14:14;19.40;63.60
26821;DHT22;37186;51.394;5.454;2022-07-29T05:17:15;19.40;63.60
26821;DHT22;37186;51.394;5.454;2022-07-29T05:20:15;19.30;63.50
26821;DHT22;37186;51.394;5.454;2022-07-29T05:23:16;19.30;63.70
26821;DHT22;37186;51.394;5.454;2022-07-29T05:26:16;19.30;63.70
26821;DHT22;37186;51.394;5.454;2022-07-29T05:29:17;19.30;63.60
26821;DHT22;37186;51.394;5.454;2022-07-29T05:32:17;19.30;64.10
26821;DHT22;37186;51.394;5.454;2022-07-29T05:35:18;19.30;63.80
26821;DHT22;37186;51.394;5.454;2022-07-29T05:38:19;19.30;63.90
26821;DHT22;37186;51.394;5.454;2022-07-29T05:41:19;19.30;63.80
26821;DHT22;37186;51.394;5.454;2022-07-29T05:44:20;19.30;64.10
26821;DHT22;37186;51.394;5.454;2022-07-29T05:47:21;19.20;63.70
26821;DHT22;37186;51.394;5.454;2022-07-29T05:50:22;19.30;63.70
26821;DHT22;37186;51.394;5.454;2022-07-29T05:53:23;19.20;63.90
26821;DHT22;37186;51.394;5.454;2022-07-29T05:56:24;19.20;63.80
26821;DHT22;37186;51.394;5.454;2022-07-29T05:59:24;19.20;63.80
26821;DHT22;37186;51.394;5.454;2022-07-29T06:02:25;19.20;63.80
26821;DHT22;37186;51.394;5.454;2022-07-29T06:05:25;19.20;63.60
26821;DHT22;37186;51.394;5.454;2022-07-29T06:08:26;19.20;63.80
26821;DHT22;37186;51.394;5.454;2022-07-29T06:11:27;19.20;64.40
26821;DHT22;37186;51.394;5.454;2022-07-29T06:14:27;19.20;64.10
26821;DHT22;37186;51.394;5.454;2022-07-29T06:17:28;19.20;63.80
26821;DHT22;37186;51.394;5.454;2022-07-29T06:20:30;19.20;63.90
26821;DHT22;37186;51.394;5.454;2022-07-29T06:23:30;19.20;64.50
26821;DHT22;37186;51.394;5.454;2022-07-29T06:26:31;19.20;64.00
26821;DHT22;37186;51.394;5.454;2022-07-29T06:29:31;19.20;64.40
26821;DHT22;37186;51.394;5.454;2022-07-29T06:32:33;19.20;64.10
26821;DHT22;37186;51.394;5.454;2022-07-29T06:35:34;19.20;64.10
26821;DHT22;37186;51.394;5.454;2022-07-29T06:38:35;19.20;64.00
26821;DHT22;37186;51.394;5.454;2022-07-29T06:41:36;19.20;64.10
26821;DHT22;37186;51.394;5.454;2022-07-29T06:44:36;19.20;64.10
26821;DHT22;37186;51.394;5.454;2022-07-29T06:47:37;19.20;64.10
26821;DHT22;37186;51.394;5.454;2022-07-29T06:50:37;19.20;64.10
26821;DHT22;37186;51.394;5.454;2022-07-29T06:53:38;19.20;64.10
26821;DHT22;37186;51.394;5.454;2022-07-29T06:56:39;19.20;64.30
26821;DHT22;37186;51.394;5.454;2022-07-29T06:59:41;19.20;64.20
26821;DHT22;37186;51.394;5.454;2022-07-29T07:02:42;19.20;64.10
26821;DHT22;37186;51.394;5.454;2022-07-29T07:05:43;19.20;64.10
26821;DHT22;37186;51.394;5.454;2022-07-29T07:08:44;19.20;64.20
26821;DHT22;37186;51.394;5.454;2022-07-29T07:11:44;19.20;64.30
26821;DHT22;37186;51.394;5.454;2022-07-29T07:14:45;19.20;64.20
26821;DHT22;37186;51.394;5.454;2022-07-29T07:17:45;19.20;64.20
26821;DHT22;37186;51.394;5.454;2022-07-29T07:20:46;19.20;64.10
26821;DHT22;37186;51.394;5.454;2022-07-29T07:23:47;19.20;64.50
26821;DHT22;37186;51.394;5.454;2022-07-29T07:26:48;19.30;64.80
26821;DHT22;37186;51.394;5.454;2022-07-29T07:29:48;19.30;65.00
26821;DHT22;37186;51.394;5.454;2022-07-29T07:32:49;19.30;65.30
26821;DHT22;37186;51.394;5.454;2022-07-29T07:35:49;19.30;64.70
26821;DHT22;37186;51.394;5.454;2022-07-29T07:38:50;19.40;64.80
26821;DHT22;37186;51.394;5.454;2022-07-29T07:41:50;19.40;64.90
26821;DHT22;37186;51.394;5.454;2022-07-29T07:44:51;19.40;65.40
26821;DHT22;37186;51.394;5.454;2022-07-29T07:47:52;19.40;65.00
26821;DHT22;37186;51.394;5.454;2022-07-29T07:50:52;19.40;65.20
26821;DHT22;37186;51.394;5.454;2022-07-29T07:53:53;19.40;65.00
26821;DHT22;37186;51.394;5.454;2022-07-29T07:56:53;19.50;65.00
26821;DHT22;37186;51.394;5.454;2022-07-29T07:59:54;19.50;65.00
26821;DHT22;37186;51.394;5.454;2022-07-29T08:02:54;19.50;65.00
26821;DHT22;37186;51.394;5.454;2022-07-29T08:05:55;19.50;65.10
26821;DHT22;37186;51.394;5.454;2022-07-29T08:08:55;19.50;65.10
26821;DHT22;37186;51.394;5.454;2022-07-29T08:11:57;19.60;65.00
26821;DHT22;37186;51.394;5.454;2022-07-29T08:14:58;19.60;65.00
26821;DHT22;37186;51.394;5.454;2022-07-29T08:17:59;19.60;65.00
26821;DHT22;37186;51.394;5.454;2022-07-29T08:20:59;19.60;65.80
26821;DHT22;37186;51.394;5.454;2022-07-29T08:24:00;19.70;65.20
26821;DHT22;37186;51.394;5.454;2022-07-29T08:27:19;19.70;65.30
26821;DHT22;37186;51.394;5.454;2022-07-29T08:30:20;19.70;66.00
26821;DHT22;37186;51.394;5.454;2022-07-29T08:33:21;19.80;65.20
26821;DHT22;37186;51.394;5.454;2022-07-29T08:36:21;19.70;66.10
26821;DHT22;37186;51.394;5.454;2022-07-29T08:39:23;19.80;65.90
26821;DHT22;37186;51.394;5.454;2022-07-29T08:42:24;19.80;65.40
26821;DHT22;37186;51.394;5.454;2022-07-29T08:45:25;19.80;65.20
26821;DHT22;37186;51.394;5.454;2022-07-29T08:48:26;19.90;65.30
26821;DHT22;37186;51.394;5.454;2022-07-29T08:51:26;19.90;65.40
26821;DHT22;37186;51.394;5.454;2022-07-29T08:54:28;19.90;65.30
26821;DHT22;37186;51.394;5.454;2022-07-29T08:57:29;19.90;65.20
26821;DHT22;37186;51.394;5.454;2022-07-29T09:00:31;19.90;66.10
26821;DHT22;37186;51.394;5.454;2022-07-29T09:03:33;20.00;66.20
26821;DHT22;37186;51.394;5.454;2022-07-29T09:06:37;20.00;65.40
26821;DHT22;37186;51.394;5.454;2022-07-29T09:09:37;20.00;66.30
26821;DHT22;37186;51.394;5.454;2022-07-29T09:12:40;20.10;65.40
26821;DHT22;37186;51.394;5.454;2022-07-29T09:15:40;20.10;65.40
26821;DHT22;37186;51.394;5.454;2022-07-29T09:18:45;20.10;65.30
26821;DHT22;37186;51.394;5.454;2022-07-29T09:21:46;20.10;65.20
26821;DHT22;37186;51.394;5.454;2022-07-29T09:24:59;20.20;65.40
26821;DHT22;37186;51.394;5.454;2022-07-29T09:28:09;20.20;65.40
26821;DHT22;37186;51.394;5.454;2022-07-29T09:31:10;20.20;65.30
26821;DHT22;37186;51.394;5.454;2022-07-29T09:34:13;20.30;65.80
26821;DHT22;37186;51.394;5.454;2022-07-29T09:37:26;20.30;65.50
26821;DHT22;37186;51.394;5.454;2022-07-29T09:40:28;20.30;65.60
26821;DHT22;37186;51.394;5.454;2022-07-29T09:43:28;20.40;65.50
26821;DHT22;37186;51.394;5.454;2022-07-29T09:46:29;20.40;65.60
26821;DHT22;37186;51.394;5.454;2022-07-29T09:49:29;20.50;65.70
26821;DHT22;37186;51.394;5.454;2022-07-29T09:52:30;20.50;65.70
26821;DHT22;37186;51.394;5.454;2022-07-29T09:55:31;20.60;65.70
26821;DHT22;37186;51.394;5.454;2022-07-29T09:58:32;20.70;66.20
26821;DHT22;37186;51.394;5.454;2022-07-29T10:01:35;20.70;65.70
26821;DHT22;37186;51.394;5.454;2022-07-29T10:04:38;20.70;65.70
26821;DHT22;37186;51.394;5.454;2022-07-29T10:07:50;20.80;65.90
26821;DHT22;37186;51.394;5.454;2022-07-29T10:10:50;20.90;66.00
26821;DHT22;37186;51.394;5.454;2022-07-29T10:13:51;20.90;66.00
26821;DHT22;37186;51.394;5.454;2022-07-29T10:16:52;21.00;65.90
26821;DHT22;37186;51.394;5.454;2022-07-29T10:19:52;21.10;66.00
26821;DHT22;37186;51.394;5.454;2022-07-29T10:22:54;21.10;65.80
26821;DHT22;37186;51.394;5.454;2022-07-29T10:25:56;21.20;65.80
26821;DHT22;37186;51.394;5.454;2022-07-29T10:28:57;21.20;65.90
26821;DHT22;37186;51.394;5.454;2022-07-29T10:45:06;21.50;65.90
26821;DHT22;37186;51.394;5.454;2022-07-29T10:48:08;21.60;65.90
26821;DHT22;37186;51.394;5.454;2022-07-29T10:51:09;21.70;66.10
26821;DHT22;37186;51.394;5.454;2022-07-29T10:54:10;21.80;66.00
26821;DHT22;37186;51.394;5.454;2022-07-29T11:00:27;21.90;65.90
26821;DHT22;37186;51.394;5.454;2022-07-29T11:03:47;22.00;65.50
26821;DHT22;37186;51.394;5.454;2022-07-29T11:07:09;22.00;65.60
26821;DHT22;37186;51.394;5.454;2022-07-29T11:13:46;22.10;65.10
26821;DHT22;37186;51.394;5.454;2022-07-29T11:16:59;22.20;65.20
26821;DHT22;37186;51.394;5.454;2022-07-29T11:23:32;22.30;65.10
26821;DHT22;37186;51.394;5.454;2022-07-29T11:26:36;22.40;65.10
26821;DHT22;37186;51.394;5.454;2022-07-29T11:29:58;22.40;64.50
26821;DHT22;37186;51.394;5.454;2022-07-29T11:33:03;22.40;65.00
26821;DHT22;37186;51.394;5.454;2022-07-29T11:36:11;22.50;65.90
26821;DHT22;37186;51.394;5.454;2022-07-29T11:39:28;22.60;65.10
26821;DHT22;37186;51.394;5.454;2022-07-29T11:45:45;22.70;64.80
26821;DHT22;37186;51.394;5.454;2022-07-29T11:48:46;22.80;64.90
26821;DHT22;37186;51.394;5.454;2022-07-29T11:51:54;22.80;64.80
26821;DHT22;37186;51.394;5.454;2022-07-29T11:54:58;22.90;64.50
26821;DHT22;37186;51.394;5.454;2022-07-29T11:58:02;22.90;64.40
26821;DHT22;37186;51.394;5.454;2022-07-29T12:01:02;23.00;64.40
26821;DHT22;37186;51.394;5.454;2022-07-29T12:04:07;23.00;64.40
26821;DHT22;37186;51.394;5.454;2022-07-29T12:07:07;23.10;64.60
26821;DHT22;37186;51.394;5.454;2022-07-29T12:10:08;23.20;64.70
26821;DHT22;37186;51.394;5.454;2022-07-29T12:13:09;23.20;64.60
26821;DHT22;37186;51.394;5.454;2022-07-29T12:16:10;23.30;64.50
26821;DHT22;37186;51.394;5.454;2022-07-29T12:19:13;23.40;64.40
26821;DHT22;37186;51.394;5.454;2022-07-29T12:22:27;23.40;63.10
26821;DHT22;37186;51.394;5.454;2022-07-29T12:25:33;23.40;63.30
26821;DHT22;37186;51.394;5.454;2022-07-29T12:28:38;23.50;63.60
26821;DHT22;37186;51.394;5.454;2022-07-29T12:31:39;23.60;63.90
26821;DHT22;37186;51.394;5.454;2022-07-29T12:34:39;23.60;63.70
26821;DHT22;37186;51.394;5.454;2022-07-29T12:37:41;23.80;63.90
26821;DHT22;37186;51.394;5.454;2022-07-29T12:40:43;23.80;64.10
26821;DHT22;37186;51.394;5.454;2022-07-29T12:43:54;23.90;63.30
26821;DHT22;37186;51.394;5.454;2022-07-29T12:47:05;24.00;63.90
26821;DHT22;37186;51.394;5.454;2022-07-29T12:50:12;24.10;63.90
26821;DHT22;37186;51.394;5.454;2022-07-29T12:53:14;24.10;63.70
26821;DHT22;37186;51.394;5.454;2022-07-29T12:56:15;24.20;63.90
26821;DHT22;37186;51.394;5.454;2022-07-29T12:59:20;24.30;63.80
26821;DHT22;37186;51.394;5.454;2022-07-29T13:02:22;24.40;63.90
26821;DHT22;37186;51.394;5.454;2022-07-29T13:05:22;24.40;63.00
26821;DHT22;37186;51.394;5.454;2022-07-29T13:08:24;24.50;63.70
26821;DHT22;37186;51.394;5.454;2022-07-29T13:11:29;24.60;63.50
26821;DHT22;37186;51.394;5.454;2022-07-29T13:14:40;24.60;62.80
26821;DHT22;37186;51.394;5.454;2022-07-29T13:17:44;24.70;63.10
26821;DHT22;37186;51.394;5.454;2022-07-29T13:20:44;24.80;63.20
26821;DHT22;37186;51.394;5.454;2022-07-29T13:23:45;24.80;62.70
26821;DHT22;37186;51.394;5.454;2022-07-29T13:26:45;24.80;61.70
26821;DHT22;37186;51.394;5.454;2022-07-29T13:29:46;24.80;62.20
26821;DHT22;37186;51.394;5.454;2022-07-29T13:32:47;24.90;62.30
26821;DHT22;37186;51.394;5.454;2022-07-29T13:35:48;25.00;62.60
26821;DHT22;37186;51.394;5.454;2022-07-29T13:38:48;25.10;61.20
26821;DHT22;37186;51.394;5.454;2022-07-29T13:41:49;25.10;62.00
26821;DHT22;37186;51.394;5.454;2022-07-29T13:44:49;25.20;62.20
26821;DHT22;37186;51.394;5.454;2022-07-29T13:47:51;25.30;63.00
26821;DHT22;37186;51.394;5.454;2022-07-29T13:50:52;25.40;62.20
26821;DHT22;37186;51.394;5.454;2022-07-29T13:53:52;25.40;62.30
26821;DHT22;37186;51.394;5.454;2022-07-29T13:56:53;25.50;62.40
26821;DHT22;37186;51.394;5.454;2022-07-29T13:59:53;25.60;62.50
26821;DHT22;37186;51.394;5.454;2022-07-29T14:02:54;25.70;62.30
26821;DHT22;37186;51.394;5.454;2022-07-29T14:05:54;25.70;61.90
26821;DHT22;37186;51.394;5.454;2022-07-29T14:08:56;25.80;61.70
26821;DHT22;37186;51.394;5.454;2022-07-29T14:11:57;25.90;61.60
26821;DHT22;37186;51.394;5.454;2022-07-29T14:14:57;26.00;61.50
26821;DHT22;37186;51.394;5.454;2022-07-29T14:17:58;26.00;61.00
26821;DHT22;37186;51.394;5.454;2022-07-29T14:20:58;26.10;61.60
26821;DHT22;37186;51.394;5.454;2022-07-29T14:23:59;26.10;61.60
26821;DHT22;37186;51.394;5.454;2022-07-29T14:26:59;26.20;61.70
26821;DHT22;37186;51.394;5.454;2022-07-29T14:30:00;26.30;61.60
26821;DHT22;37186;51.394;5.454;2022-07-29T14:33:00;26.30;61.60
26821;DHT22;37186;51.394;5.454;2022-07-29T14:36:02;26.30;61.40
26821;DHT22;37186;51.394;5.454;2022-07-29T14:39:02;26.30;61.00
26821;DHT22;37186;51.394;5.454;2022-07-29T14:42:03;26.40;60.80
26821;DHT22;37186;51.394;5.454;2022-07-29T14:45:05;26.50;60.00
26821;DHT22;37186;51.394;5.454;2022-07-29T14:48:06;26.50;60.50
26821;DHT22;37186;51.394;5.454;2022-07-29T14:51:06;26.60;60.40
26821;DHT22;37186;51.394;5.454;2022-07-29T14:54:07;26.70;60.00
26821;DHT22;37186;51.394;5.454;2022-07-29T14:57:07;26.80;60.30
26821;DHT22;37186;51.394;5.454;2022-07-29T15:00:11;26.90;60.40
26821;DHT22;37186;51.394;5.454;2022-07-29T15:03:12;27.00;60.30
26821;DHT22;37186;51.394;5.454;2022-07-29T15:06:12;27.10;60.20
26821;DHT22;37186;51.394;5.454;2022-07-29T15:09:13;27.20;60.40
26821;DHT22;37186;51.394;5.454;2022-07-29T15:12:14;27.30;59.20
26821;DHT22;37186;51.394;5.454;2022-07-29T15:15:14;27.40;59.70
26821;DHT22;37186;51.394;5.454;2022-07-29T15:18:15;27.50;59.90
26821;DHT22;37186;51.394;5.454;2022-07-29T15:21:15;27.70;59.60
26821;DHT22;37186;51.394;5.454;2022-07-29T15:24:16;27.70;59.50
26821;DHT22;37186;51.394;5.454;2022-07-29T15:27:17;27.90;59.50
26821;DHT22;37186;51.394;5.454;2022-07-29T15:30:17;27.90;58.10
26821;DHT22;37186;51.394;5.454;2022-07-29T15:33:18;28.00;58.80
26821;DHT22;37186;51.394;5.454;2022-07-29T15:36:19;28.00;59.10
26821;DHT22;37186;51.394;5.454;2022-07-29T15:39:20;28.00;59.00
26821;DHT22;37186;51.394;5.454;2022-07-29T15:42:21;28.10;59.00
26821;DHT22;37186;51.394;5.454;2022-07-29T15:45:21;28.10;58.70
26821;DHT22;37186;51.394;5.454;2022-07-29T15:48:22;28.10;57.90
26821;DHT22;37186;51.394;5.454;2022-07-29T15:51:22;28.00;57.20
26821;DHT22;37186;51.394;5.454;2022-07-29T15:54:23;28.00;57.20
26821;DHT22;37186;51.394;5.454;2022-07-29T15:57:24;27.90;56.20
26821;DHT22;37186;51.394;5.454;2022-07-29T16:00:24;27.90;57.00
26821;DHT22;37186;51.394;5.454;2022-07-29T16:03:25;27.80;57.20
26821;DHT22;37186;51.394;5.454;2022-07-29T16:06:25;27.80;57.40
26821;DHT22;37186;51.394;5.454;2022-07-29T16:09:26;27.80;57.50
26821;DHT22;37186;51.394;5.454;2022-07-29T16:12:28;27.70;57.20
26821;DHT22;37186;51.394;5.454;2022-07-29T16:15:28;27.70;57.10
26821;DHT22;37186;51.394;5.454;2022-07-29T16:18:29;27.70;57.20
26821;DHT22;37186;51.394;5.454;2022-07-29T16:21:30;27.60;56.70
26821;DHT22;37186;51.394;5.454;2022-07-29T16:24:31;27.50;56.50
26821;DHT22;37186;51.394;5.454;2022-07-29T16:27:32;27.50;56.00
26821;DHT22;37186;51.394;5.454;2022-07-29T16:30:34;27.40;56.20
26821;DHT22;37186;51.394;5.454;2022-07-29T16:33:34;27.40;55.70
26821;DHT22;37186;51.394;5.454;2022-07-29T16:36:36;27.30;56.20
26821;DHT22;37186;51.394;5.454;2022-07-29T16:39:36;27.30;56.50
26821;DHT22;37186;51.394;5.454;2022-07-29T16:42:37;27.20;56.70
26821;DHT22;37186;51.394;5.454;2022-07-29T16:45:38;27.20;56.80
26821;DHT22;37186;51.394;5.454;2022-07-29T16:48:38;27.20;56.90
26821;DHT22;37186;51.394;5.454;2022-07-29T16:51:39;27.20;57.00
26821;DHT22;37186;51.394;5.454;2022-07-29T16:54:39;27.20;57.10
26821;DHT22;37186;51.394;5.454;2022-07-29T16:57:40;27.20;56.60
26821;DHT22;37186;51.394;5.454;2022-07-29T17:00:42;27.10;57.30
26821;DHT22;37186;51.394;5.454;2022-07-29T17:03:42;27.20;57.40
26821;DHT22;37186;51.394;5.454;2022-07-29T17:07:01;27.20;57.60
26821;DHT22;37186;51.394;5.454;2022-07-29T17:10:02;27.40;58.30
26821;DHT22;37186;51.394;5.454;2022-07-29T17:13:04;27.50;57.70
26821;DHT22;37186;51.394;5.454;2022-07-29T17:16:04;27.60;58.30
26821;DHT22;37186;51.394;5.454;2022-07-29T17:19:05;27.60;57.80
26821;DHT22;37186;51.394;5.454;2022-07-29T17:22:06;27.60;53.10
26821;DHT22;37186;51.394;5.454;2022-07-29T17:25:06;27.50;55.80
26821;DHT22;37186;51.394;5.454;2022-07-29T17:28:07;27.50;55.80
26821;DHT22;37186;51.394;5.454;2022-07-29T17:31:08;27.50;55.80
26821;DHT22;37186;51.394;5.454;2022-07-29T17:34:08;27.40;56.10
26821;DHT22;37186;51.394;5.454;2022-07-29T17:37:10;27.40;56.10
26821;DHT22;37186;51.394;5.454;2022-07-29T17:40:11;27.40;55.10
26821;DHT22;37186;51.394;5.454;2022-07-29T17:43:11;27.40;55.00
26821;DHT22;37186;51.394;5.454;2022-07-29T17:46:12;27.30;55.20
26821;DHT22;37186;51.394;5.454;2022-07-29T17:49:12;27.40;55.70
26821;DHT22;37186;51.394;5.454;2022-07-29T17:52:13;27.40;56.10
26821;DHT22;37186;51.394;5.454;2022-07-29T17:55:22;27.50;56.30
26821;DHT22;37186;51.394;5.454;2022-07-29T17:58:23;27.60;56.90
26821;DHT22;37186;51.394;5.454;2022-07-29T18:01:24;27.60;57.20
26821;DHT22;37186;51.394;5.454;2022-07-29T18:04:24;27.70;57.20
26821;DHT22;37186;51.394;5.454;2022-07-29T18:07:25;27.80;56.90
26821;DHT22;37186;51.394;5.454;2022-07-29T18:10:25;27.80;57.10
26821;DHT22;37186;51.394;5.454;2022-07-29T18:13:26;27.90;57.20
26821;DHT22;37186;51.394;5.454;2022-07-29T18:16:26;27.90;56.90
26821;DHT22;37186;51.394;5.454;2022-07-29T18:19:27;27.90;56.70
26821;DHT22;37186;51.394;5.454;2022-07-29T18:22:28;27.90;56.60
26821;DHT22;37186;51.394;5.454;2022-07-29T18:25:29;27.90;56.60
26821;DHT22;37186;51.394;5.454;2022-07-29T18:28:30;27.80;56.50
26821;DHT22;37186;51.394;5.454;2022-07-29T18:31:31;27.80;56.40
26821;DHT22;37186;51.394;5.454;2022-07-29T18:34:32;27.70;56.40
26821;DHT22;37186;51.394;5.454;2022-07-29T18:37:33;27.70;55.60
26821;DHT22;37186;51.394;5.454;2022-07-29T18:40:34;27.60;56.00
26821;DHT22;37186;51.394;5.454;2022-07-29T18:43:37;27.50;55.90
26821;DHT22;37186;51.394;5.454;2022-07-29T18:46:37;27.40;55.80
26821;DHT22;37186;51.394;5.454;2022-07-29T18:49:40;27.30;55.70
26821;DHT22;37186;51.394;5.454;2022-07-29T18:52:41;27.30;55.80
26821;DHT22;37186;51.394;5.454;2022-07-29T18:55:41;27.20;55.80
26821;DHT22;37186;51.394;5.454;2022-07-29T18:58:42;27.10;55.70
26821;DHT22;37186;51.394;5.454;2022-07-29T19:01:43;27.10;55.90
26821;DHT22;37186;51.394;5.454;2022-07-29T19:04:43;27.00;55.80
26821;DHT22;37186;51.394;5.454;2022-07-29T19:07:44;26.90;55.80
26821;DHT22;37186;51.394;5.454;2022-07-29T19:10:44;26.90;55.80
26821;DHT22;37186;51.394;5.454;2022-07-29T19:13:45;26.80;55.80
26821;DHT22;37186;51.394;5.454;2022-07-29T19:16:46;26.70;55.80
26821;DHT22;37186;51.394;5.454;2022-07-29T19:19:47;26.60;55.80
26821;DHT22;37186;51.394;5.454;2022-07-29T19:22:49;26.60;55.80
26821;DHT22;37186;51.394;5.454;2022-07-29T19:25:50;26.60;55.80
26821;DHT22;37186;51.394;5.454;2022-07-29T19:28:50;26.50;55.80
26821;DHT22;37186;51.394;5.454;2022-07-29T19:31:51;26.40;55.60
26821;DHT22;37186;51.394;5.454;2022-07-29T19:34:52;26.40;55.80
26821;DHT22;37186;51.394;5.454;2022-07-29T19:38:11;26.30;55.90
26821;DHT22;37186;51.394;5.454;2022-07-29T19:41:14;26.20;55.80
26821;DHT22;37186;51.394;5.454;2022-07-29T19:44:16;26.10;55.90
26821;DHT22;37186;51.394;5.454;2022-07-29T19:47:16;26.10;55.80